createdAt,value
2022-09-02T00:00:10.617Z,98655.00
2022-09-02T00:00:19.768Z,98655.00
2022-09-02T00:00:29.759Z,98655.00
2022-09-02T00:00:39.749Z,98653.00
2022-09-02T00:00:49.789Z,98655.00
2022-09-02T00:00:59.759Z,98653.00
2022-09-02T00:01:09.789Z,98655.00
2022-09-02T00:01:19.748Z,98653.00
2022-09-02T00:01:29.769Z,98655.00
2022-09-02T00:01:39.929Z,98655.00
2022-09-02T00:01:49.815Z,98657.00
2022-09-02T00:02:01.846Z,98653.00
2022-09-02T00:02:09.853Z,98655.00
2022-09-02T00:02:19.837Z,98653.00
2022-09-02T00:02:29.985Z,98653.00
2022-09-02T00:02:39.983Z,98653.00
2022-09-02T00:02:51.766Z,98655.00
2022-09-02T00:03:01.362Z,98651.00
2022-09-02T00:03:09.891Z,98657.00
2022-09-02T00:03:22.032Z,98655.00
2022-09-02T00:03:32.032Z,98655.00
2022-09-02T00:03:41.429Z,98653.00
2022-09-02T00:03:49.978Z,98655.00
2022-09-02T00:04:00.000Z,98651.00
2022-09-02T00:04:09.979Z,98653.00
2022-09-02T00:04:21.930Z,98651.00
2022-09-02T00:04:31.921Z,98651.00
2022-09-02T00:04:41.919Z,98653.00
2022-09-02T00:04:50.008Z,98653.00
2022-09-02T00:04:59.958Z,98651.00
2022-09-02T00:05:10.026Z,98653.00
2022-09-02T00:05:19.957Z,98651.00
2022-09-02T00:05:30.101Z,98653.00
2022-09-02T00:05:40.850Z,98653.00
2022-09-02T00:05:50.081Z,98649.00
2022-09-02T00:06:01.898Z,98651.00
2022-09-02T00:06:09.959Z,98649.00
2022-09-02T00:06:21.926Z,98649.00
2022-09-02T00:06:29.949Z,98651.00
2022-09-02T00:06:40.759Z,98651.00
2022-09-02T00:06:49.950Z,98651.00
2022-09-02T00:07:01.890Z,98651.00
2022-09-02T00:07:10.935Z,98649.00
2022-09-02T00:07:19.952Z,98649.00
2022-09-02T00:07:29.967Z,98651.00
2022-09-02T00:07:39.959Z,98651.00
2022-09-02T00:07:51.900Z,98651.00
2022-09-02T00:08:00.210Z,98649.00
2022-09-02T00:08:10.871Z,98653.00
2022-09-02T00:08:21.901Z,98647.00
2022-09-02T00:08:30.086Z,98649.00
2022-09-02T00:08:40.820Z,98645.00
2022-09-02T00:08:51.915Z,98649.00
2022-09-02T00:09:01.892Z,98649.00
2022-09-02T00:09:10.519Z,98647.00
2022-09-02T00:09:19.940Z,98653.00
2022-09-02T00:09:31.902Z,98649.00
2022-09-02T00:09:40.727Z,98649.00
2022-09-02T00:09:50.029Z,98647.00
2022-09-02T00:10:01.871Z,98647.00
2022-09-02T00:10:11.872Z,98647.00
2022-09-02T00:10:19.930Z,98649.00
2022-09-02T00:10:30.901Z,98645.00
2022-09-02T00:10:41.884Z,98645.00
2022-09-02T00:10:49.909Z,98647.00
2022-09-02T00:11:00.220Z,98645.00
2022-09-02T00:11:09.928Z,98649.00
2022-09-02T00:11:21.873Z,98647.00
2022-09-02T00:11:29.911Z,98647.00
2022-09-02T00:11:39.921Z,98647.00
2022-09-02T00:11:49.973Z,98647.00
2022-09-02T00:12:00.759Z,98649.00
2022-09-02T00:12:11.870Z,98647.00
2022-09-02T00:12:20.052Z,98645.00
2022-09-02T00:12:30.712Z,98645.00
2022-09-02T00:12:41.891Z,98647.00
2022-09-02T00:12:50.031Z,98645.00
2022-09-02T00:13:00.661Z,98647.00
2022-09-02T00:13:09.954Z,98647.00
2022-09-02T00:13:19.910Z,98647.00
2022-09-02T00:13:29.910Z,98647.00
2022-09-02T00:13:41.861Z,98647.00
2022-09-02T00:13:51.845Z,98647.00
2022-09-02T00:14:01.351Z,98645.00
2022-09-02T00:14:11.843Z,98645.00
2022-09-02T00:14:21.852Z,98647.00
2022-09-02T00:14:31.847Z,98647.00
2022-09-02T00:14:41.853Z,98647.00
2022-09-02T00:14:51.830Z,98645.00
2022-09-02T00:15:01.342Z,98643.00
2022-09-02T00:15:09.892Z,98645.00
2022-09-02T00:15:19.911Z,98647.00
2022-09-02T00:15:31.853Z,98645.00
2022-09-02T00:15:40.891Z,98645.00
2022-09-02T00:15:49.903Z,98647.00
2022-09-02T00:16:01.978Z,98643.00
2022-09-02T00:16:11.910Z,98645.00
2022-09-02T00:16:19.936Z,98647.00
2022-09-02T00:16:29.945Z,98645.00
2022-09-02T00:16:39.927Z,98645.00
2022-09-02T00:16:52.015Z,98647.00
2022-09-02T00:17:01.894Z,98643.00
2022-09-02T00:17:11.890Z,98645.00
2022-09-02T00:17:21.822Z,98641.00
2022-09-02T00:17:31.812Z,98639.00
2022-09-02T00:17:41.966Z,98639.00
2022-09-02T00:17:50.133Z,98643.00
2022-09-02T00:17:59.883Z,98641.00
2022-09-02T00:18:12.563Z,98639.00
2022-09-02T00:18:19.912Z,98643.00
2022-09-02T00:18:30.142Z,98641.00
2022-09-02T00:18:39.872Z,98639.00
2022-09-02T00:18:49.883Z,98641.00
2022-09-02T00:19:01.842Z,98641.00
2022-09-02T00:19:11.804Z,98639.00
2022-09-02T00:19:21.802Z,98643.00
2022-09-02T00:19:31.802Z,98641.00
2022-09-02T00:19:41.803Z,98643.00
2022-09-02T00:19:55.605Z,98641.00
2022-09-02T00:20:00.874Z,98639.00
2022-09-02T00:20:10.873Z,98643.00
2022-09-02T00:20:20.872Z,98641.00
2022-09-02T00:20:30.880Z,98639.00
2022-09-02T00:20:42.814Z,98641.00
2022-09-02T00:20:50.854Z,98641.00
2022-09-02T00:21:00.924Z,98643.00
2022-09-02T00:21:12.803Z,98641.00
2022-09-02T00:21:22.803Z,98639.00
2022-09-02T00:21:32.793Z,98639.00
2022-09-02T00:21:42.808Z,98641.00
2022-09-02T00:21:50.845Z,98639.00
2022-09-02T00:22:02.815Z,98637.00
2022-09-02T00:22:11.115Z,98637.00
2022-09-02T00:22:20.960Z,98639.00
2022-09-02T00:22:32.793Z,98639.00
2022-09-02T00:22:42.824Z,98637.00
2022-09-02T00:22:52.305Z,98641.00
2022-09-02T00:23:00.870Z,98637.00
2022-09-02T00:23:11.173Z,98637.00
2022-09-02T00:23:21.848Z,98639.00
2022-09-02T00:23:30.834Z,98637.00
2022-09-02T00:23:40.874Z,98637.00
2022-09-02T00:23:50.836Z,98641.00
2022-09-02T00:24:00.854Z,98637.00
2022-09-02T00:24:12.794Z,98637.00
2022-09-02T00:24:20.824Z,98639.00
2022-09-02T00:24:32.787Z,98637.00
2022-09-02T00:24:41.592Z,98639.00
2022-09-02T00:24:50.825Z,98639.00
2022-09-02T00:25:02.800Z,98641.00
2022-09-02T00:25:12.775Z,98637.00
2022-09-02T00:25:20.826Z,98639.00
2022-09-02T00:25:30.834Z,98641.00
2022-09-02T00:25:40.836Z,98641.00
2022-09-02T00:25:52.784Z,98641.00
2022-09-02T00:26:00.823Z,98641.00
2022-09-02T00:26:12.785Z,98639.00
2022-09-02T00:26:22.754Z,98641.00
2022-09-02T00:26:30.809Z,98639.00
2022-09-02T00:26:41.654Z,98639.00
2022-09-02T00:26:55.333Z,98637.00
2022-09-02T00:27:01.403Z,98637.00
2022-09-02T00:27:13.354Z,98641.00
2022-09-02T00:27:21.415Z,98641.00
2022-09-02T00:27:33.368Z,98639.00
2022-09-02T00:27:43.345Z,98639.00
2022-09-02T00:27:51.395Z,98641.00
2022-09-02T00:28:02.295Z,98639.00
2022-09-02T00:28:13.371Z,98637.00
2022-09-02T00:28:21.397Z,98639.00
2022-09-02T00:28:31.407Z,98637.00
2022-09-02T00:28:48.955Z,98641.00
2022-09-02T00:28:56.184Z,98637.00
2022-09-02T00:29:03.784Z,98641.00
2022-09-02T00:29:11.935Z,98637.00
2022-09-02T00:29:21.947Z,98635.00
2022-09-02T00:29:31.946Z,98639.00
2022-09-02T00:29:43.755Z,98639.00
2022-09-02T00:29:51.986Z,98639.00
2022-09-02T00:30:01.976Z,98637.00
2022-09-02T00:30:11.803Z,98639.00
2022-09-02T00:30:23.785Z,98637.00
2022-09-02T00:30:31.804Z,98635.00
2022-09-02T00:30:41.835Z,98639.00
2022-09-02T00:30:51.826Z,98639.00
2022-09-02T00:31:01.813Z,98637.00
2022-09-02T00:31:13.800Z,98637.00
2022-09-02T00:31:23.804Z,98639.00
2022-09-02T00:31:31.874Z,98637.00
2022-09-02T00:31:41.848Z,98639.00
2022-09-02T00:31:53.823Z,98637.00
2022-09-02T00:32:03.801Z,98639.00
2022-09-02T00:32:13.249Z,98637.00
2022-09-02T00:32:21.831Z,98637.00
2022-09-02T00:32:31.849Z,98639.00
2022-09-02T00:32:41.798Z,98635.00
2022-09-02T00:32:51.799Z,98639.00
2022-09-02T00:33:03.764Z,98639.00
2022-09-02T00:33:11.796Z,98639.00
2022-09-02T00:33:21.955Z,98637.00
2022-09-02T00:33:31.795Z,98635.00
2022-09-02T00:33:41.789Z,98637.00
2022-09-02T00:33:51.794Z,98637.00
2022-09-02T00:34:01.827Z,98637.00
2022-09-02T00:34:13.756Z,98637.00
2022-09-02T00:34:23.246Z,98639.00
2022-09-02T00:34:31.779Z,98637.00
2022-09-02T00:34:41.796Z,98635.00
2022-09-02T00:34:51.798Z,98635.00
2022-09-02T00:35:01.894Z,98635.00
2022-09-02T00:35:11.765Z,98637.00
2022-09-02T00:35:23.736Z,98633.00
2022-09-02T00:35:31.799Z,98637.00
2022-09-02T00:35:42.584Z,98633.00
2022-09-02T00:35:51.789Z,98633.00
2022-09-02T00:36:03.716Z,98639.00
2022-09-02T00:36:13.718Z,98633.00
2022-09-02T00:36:23.214Z,98633.00
2022-09-02T00:36:31.757Z,98633.00
2022-09-02T00:36:42.852Z,98635.00
2022-09-02T00:36:53.709Z,98635.00
2022-09-02T00:37:03.709Z,98635.00
2022-09-02T00:37:13.717Z,98635.00
2022-09-02T00:37:21.777Z,98635.00
2022-09-02T00:37:31.858Z,98635.00
2022-09-02T00:37:41.737Z,98633.00
2022-09-02T00:37:53.708Z,98633.00
2022-09-02T00:38:03.697Z,98635.00
2022-09-02T00:38:11.748Z,98635.00
2022-09-02T00:38:22.585Z,98633.00
2022-09-02T00:38:31.778Z,98635.00
2022-09-02T00:38:41.730Z,98633.00
2022-09-02T00:38:51.777Z,98631.00
2022-09-02T00:39:02.237Z,98633.00
2022-09-02T00:39:11.748Z,98633.00
2022-09-02T00:39:21.775Z,98631.00
2022-09-02T00:39:31.750Z,98631.00
2022-09-02T00:39:43.678Z,98631.00
2022-09-02T00:39:51.748Z,98633.00
2022-09-02T00:40:03.813Z,98631.00
2022-09-02T00:40:13.714Z,98631.00
2022-09-02T00:40:23.735Z,98631.00
2022-09-02T00:40:31.774Z,98629.00
2022-09-02T00:40:43.753Z,98631.00
2022-09-02T00:40:51.959Z,98631.00
2022-09-02T00:41:03.858Z,98629.00
2022-09-02T00:41:13.851Z,98629.00
2022-09-02T00:41:22.390Z,98629.00
2022-09-02T00:41:31.879Z,98629.00
2022-09-02T00:41:41.889Z,98629.00
2022-09-02T00:41:51.908Z,98629.00
2022-09-02T00:42:03.848Z,98629.00
2022-09-02T00:42:13.355Z,98631.00
2022-09-02T00:42:22.119Z,98631.00
2022-09-02T00:42:33.819Z,98631.00
2022-09-02T00:42:41.875Z,98629.00
2022-09-02T00:42:53.839Z,98629.00
2022-09-02T00:43:03.330Z,98631.00
2022-09-02T00:43:11.879Z,98627.00
2022-09-02T00:43:23.829Z,98629.00
2022-09-02T00:43:31.888Z,98629.00
2022-09-02T00:43:41.911Z,98629.00
2022-09-02T00:43:51.889Z,98629.00
2022-09-02T00:44:02.558Z,98627.00
2022-09-02T00:44:13.809Z,98631.00
2022-09-02T00:44:23.319Z,98629.00
2022-09-02T00:44:33.839Z,98627.00
2022-09-02T00:44:41.867Z,98631.00
2022-09-02T00:44:53.819Z,98627.00
2022-09-02T00:45:01.858Z,98629.00
2022-09-02T00:45:13.840Z,98627.00
2022-09-02T00:45:23.864Z,98629.00
2022-09-02T00:45:33.371Z,98627.00
2022-09-02T00:45:43.831Z,98627.00
2022-09-02T00:45:52.686Z,98629.00
2022-09-02T00:46:01.909Z,98627.00
2022-09-02T00:46:13.871Z,98627.00
2022-09-02T00:46:23.801Z,98629.00
2022-09-02T00:46:33.800Z,98625.00
2022-09-02T00:46:43.792Z,98631.00
2022-09-02T00:46:53.310Z,98625.00
2022-09-02T00:47:03.838Z,98627.00
2022-09-02T00:47:11.842Z,98629.00
2022-09-02T00:47:21.850Z,98629.00
2022-09-02T00:47:31.880Z,98629.00
2022-09-02T00:47:43.800Z,98629.00
2022-09-02T00:47:51.862Z,98627.00
2022-09-02T00:48:02.015Z,98629.00
2022-09-02T00:48:11.850Z,98627.00
2022-09-02T00:48:21.848Z,98627.00
2022-09-02T00:48:31.851Z,98627.00
2022-09-02T00:48:43.821Z,98625.00
2022-09-02T00:48:51.831Z,98627.00
2022-09-02T00:49:03.800Z,98627.00
2022-09-02T00:49:13.780Z,98627.00
2022-09-02T00:49:21.841Z,98625.00
2022-09-02T00:49:33.804Z,98627.00
2022-09-02T00:49:43.270Z,98627.00
2022-09-02T00:49:53.770Z,98629.00
2022-09-02T00:50:01.924Z,98627.00
2022-09-02T00:50:11.831Z,98627.00
2022-09-02T00:50:23.787Z,98627.00
2022-09-02T00:50:33.822Z,98625.00
2022-09-02T00:50:43.762Z,98629.00
2022-09-02T00:50:53.782Z,98629.00
2022-09-02T00:51:03.779Z,98625.00
2022-09-02T00:51:13.760Z,98627.00
2022-09-02T00:51:22.613Z,98627.00
2022-09-02T00:51:31.831Z,98627.00
2022-09-02T00:51:41.842Z,98627.00
2022-09-02T00:51:53.779Z,98627.00
2022-09-02T00:52:03.782Z,98629.00
2022-09-02T00:52:13.765Z,98627.00
2022-09-02T00:52:23.761Z,98627.00
2022-09-02T00:52:31.821Z,98627.00
2022-09-02T00:52:43.753Z,98627.00
2022-09-02T00:52:53.772Z,98629.00
2022-09-02T00:53:01.950Z,98627.00
2022-09-02T00:53:12.729Z,98625.00
2022-09-02T00:53:21.950Z,98627.00
2022-09-02T00:53:31.856Z,98625.00
2022-09-02T00:53:43.742Z,98627.00
2022-09-02T00:53:53.251Z,98625.00
2022-09-02T00:54:03.741Z,98627.00
2022-09-02T00:54:13.754Z,98627.00
2022-09-02T00:54:23.741Z,98627.00
2022-09-02T00:54:31.793Z,98627.00
2022-09-02T00:54:41.794Z,98629.00
2022-09-02T00:54:53.802Z,98629.00
2022-09-02T00:55:01.784Z,98627.00
2022-09-02T00:55:13.770Z,98627.00
2022-09-02T00:55:22.742Z,98629.00
2022-09-02T00:55:33.733Z,98627.00
2022-09-02T00:55:43.723Z,98629.00
2022-09-02T00:55:51.783Z,98627.00
2022-09-02T00:56:01.772Z,98627.00
2022-09-02T00:56:12.785Z,98627.00
2022-09-02T00:56:21.820Z,98627.00
2022-09-02T00:56:32.085Z,98629.00
2022-09-02T00:56:41.843Z,98629.00
2022-09-02T00:56:55.589Z,98627.00
2022-09-02T00:57:03.744Z,98625.00
2022-09-02T00:57:12.272Z,98629.00
2022-09-02T00:57:22.285Z,98629.00
2022-09-02T00:57:32.292Z,98627.00
2022-09-02T00:57:43.703Z,98627.00
2022-09-02T00:57:53.722Z,98627.00
2022-09-02T00:58:02.333Z,98629.00
2022-09-02T00:58:13.503Z,98627.00
2022-09-02T00:58:22.337Z,98627.00
2022-09-02T00:58:33.772Z,98629.00
2022-09-02T00:58:43.242Z,98627.00
2022-09-02T00:58:52.354Z,98627.00
2022-09-02T00:59:02.365Z,98629.00
2022-09-02T00:59:12.372Z,98625.00
2022-09-02T00:59:22.382Z,98627.00
2022-09-02T00:59:32.384Z,98627.00
2022-09-02T00:59:42.232Z,98625.00
2022-09-02T00:59:52.415Z,98627.00
2022-09-02T01:00:02.412Z,98627.00
2022-09-02T01:00:13.694Z,98629.00
2022-09-02T01:00:21.744Z,98627.00
2022-09-02T01:00:34.696Z,98627.00
2022-09-02T01:00:43.828Z,98627.00
2022-09-02T01:00:53.801Z,98625.00
2022-09-02T01:01:03.874Z,98625.00
2022-09-02T01:01:13.868Z,98627.00
2022-09-02T01:01:21.866Z,98627.00
2022-09-02T01:01:31.892Z,98625.00
2022-09-02T01:01:43.814Z,98627.00
2022-09-02T01:01:51.997Z,98625.00
2022-09-02T01:02:01.916Z,98625.00
2022-09-02T01:02:11.905Z,98623.00
2022-09-02T01:02:21.809Z,98625.00
2022-09-02T01:02:31.820Z,98627.00
2022-09-02T01:02:42.553Z,98625.00
2022-09-02T01:02:51.752Z,98625.00
2022-09-02T01:03:01.802Z,98627.00
2022-09-02T01:03:11.725Z,98625.00
2022-09-02T01:03:21.923Z,98625.00
2022-09-02T01:03:33.681Z,98625.00
2022-09-02T01:03:41.735Z,98627.00
2022-09-02T01:03:51.744Z,98627.00
2022-09-02T01:04:02.676Z,98625.00
2022-09-02T01:04:11.744Z,98627.00
2022-09-02T01:04:23.685Z,98621.00
2022-09-02T01:04:33.676Z,98623.00
2022-09-02T01:04:41.950Z,98623.00
2022-09-02T01:04:53.674Z,98623.00
2022-09-02T01:05:01.739Z,98623.00
2022-09-02T01:05:13.684Z,98623.00
2022-09-02T01:05:23.657Z,98625.00
2022-09-02T01:05:32.537Z,98621.00
2022-09-02T01:05:43.976Z,98623.00
2022-09-02T01:05:53.665Z,98623.00
2022-09-02T01:06:02.237Z,98623.00
2022-09-02T01:06:12.758Z,98621.00
2022-09-02T01:06:23.682Z,98623.00
2022-09-02T01:06:31.730Z,98623.00
2022-09-02T01:06:43.667Z,98621.00
2022-09-02T01:06:53.655Z,98621.00
2022-09-02T01:07:01.705Z,98623.00
2022-09-02T01:07:11.720Z,98621.00
2022-09-02T01:07:21.717Z,98621.00
2022-09-02T01:07:31.890Z,98625.00
2022-09-02T01:07:41.711Z,98625.00
2022-09-02T01:07:52.714Z,98623.00
2022-09-02T01:08:01.704Z,98623.00
2022-09-02T01:08:13.655Z,98623.00
2022-09-02T01:08:23.635Z,98621.00
2022-09-02T01:08:33.149Z,98621.00
2022-09-02T01:08:43.643Z,98623.00
2022-09-02T01:08:53.650Z,98619.00
2022-09-02T01:09:01.945Z,98623.00
2022-09-02T01:09:11.705Z,98619.00
2022-09-02T01:09:23.652Z,98621.00
2022-09-02T01:09:31.692Z,98619.00
2022-09-02T01:09:43.648Z,98617.00
2022-09-02T01:09:53.674Z,98621.00
2022-09-02T01:10:03.657Z,98621.00
2022-09-02T01:10:13.635Z,98619.00
2022-09-02T01:10:21.686Z,98621.00
2022-09-02T01:10:32.570Z,98619.00
2022-09-02T01:10:41.699Z,98619.00
2022-09-02T01:10:53.667Z,98617.00
2022-09-02T01:11:01.742Z,98619.00
2022-09-02T01:11:13.636Z,98617.00
2022-09-02T01:11:21.693Z,98617.00
2022-09-02T01:11:32.475Z,98617.00
2022-09-02T01:11:43.629Z,98617.00
2022-09-02T01:11:53.629Z,98617.00
2022-09-02T01:12:01.684Z,98615.00
2022-09-02T01:12:13.627Z,98615.00
2022-09-02T01:12:21.666Z,98615.00
2022-09-02T01:12:32.626Z,98613.00
2022-09-02T01:12:41.710Z,98613.00
2022-09-02T01:12:53.629Z,98615.00
2022-09-02T01:13:03.644Z,98613.00
2022-09-02T01:13:13.679Z,98613.00
2022-09-02T01:13:23.616Z,98613.00
2022-09-02T01:13:33.629Z,98613.00
2022-09-02T01:13:41.695Z,98617.00
2022-09-02T01:13:53.628Z,98613.00
2022-09-02T01:14:01.674Z,98617.00
2022-09-02T01:14:13.117Z,98613.00
2022-09-02T01:14:23.615Z,98615.00
2022-09-02T01:14:35.149Z,98615.00
2022-09-02T01:14:45.149Z,98613.00
2022-09-02T01:14:55.168Z,98610.00
2022-09-02T01:15:03.278Z,98610.00
2022-09-02T01:15:13.197Z,98615.00
2022-09-02T01:15:23.219Z,98612.00
2022-09-02T01:15:35.147Z,98612.00
2022-09-02T01:15:45.147Z,98615.00
2022-09-02T01:15:54.697Z,98613.00
2022-09-02T01:16:05.184Z,98612.00
2022-09-02T01:16:15.195Z,98613.00
2022-09-02T01:16:25.623Z,98613.00
2022-09-02T01:16:34.266Z,98613.00
2022-09-02T01:16:45.348Z,98613.00
2022-09-02T01:16:53.379Z,98613.00
2022-09-02T01:17:03.708Z,98612.00
2022-09-02T01:17:15.317Z,98612.00
2022-09-02T01:17:23.370Z,98612.00
2022-09-02T01:17:33.386Z,98612.00
2022-09-02T01:17:45.333Z,98612.00
2022-09-02T01:17:53.356Z,98612.00
2022-09-02T01:18:05.337Z,98612.00
2022-09-02T01:18:13.367Z,98608.00
2022-09-02T01:18:23.388Z,98610.00
2022-09-02T01:18:33.379Z,98613.00
2022-09-02T01:18:43.397Z,98612.00
2022-09-02T01:18:53.380Z,98610.00
2022-09-02T01:19:03.368Z,98610.00
2022-09-02T01:19:13.362Z,98610.00
2022-09-02T01:19:23.367Z,98610.00
2022-09-02T01:19:35.312Z,98610.00
2022-09-02T01:19:43.366Z,98610.00
2022-09-02T01:19:55.325Z,98612.00
2022-09-02T01:20:04.809Z,98610.00
2022-09-02T01:20:13.358Z,98610.00
2022-09-02T01:20:24.508Z,98608.00
2022-09-02T01:20:33.348Z,98612.00
2022-09-02T01:20:43.340Z,98610.00
2022-09-02T01:20:53.368Z,98612.00
2022-09-02T01:21:03.358Z,98612.00
2022-09-02T01:21:13.358Z,98612.00
2022-09-02T01:21:23.351Z,98612.00
2022-09-02T01:21:35.306Z,98612.00
2022-09-02T01:21:45.299Z,98612.00
2022-09-02T01:21:53.377Z,98608.00
2022-09-02T01:22:03.379Z,98612.00
2022-09-02T01:22:13.390Z,98610.00
2022-09-02T01:22:23.389Z,98610.00
2022-09-02T01:22:33.390Z,98608.00
2022-09-02T01:22:44.218Z,98610.00
2022-09-02T01:22:53.400Z,98610.00
2022-09-02T01:23:03.409Z,98610.00
2022-09-02T01:23:13.448Z,98608.00
2022-09-02T01:23:23.348Z,98610.00
2022-09-02T01:23:35.315Z,98610.00
2022-09-02T01:23:45.283Z,98608.00
2022-09-02T01:23:55.279Z,98610.00
2022-09-02T01:24:03.340Z,98612.00
2022-09-02T01:24:15.290Z,98610.00
2022-09-02T01:24:25.280Z,98608.00
2022-09-02T01:24:33.318Z,98612.00
2022-09-02T01:24:43.353Z,98612.00
2022-09-02T01:24:53.341Z,98612.00
2022-09-02T01:25:03.340Z,98612.00
2022-09-02T01:25:15.301Z,98610.00
2022-09-02T01:25:23.326Z,98612.00
2022-09-02T01:25:34.219Z,98613.00
2022-09-02T01:25:45.281Z,98608.00
2022-09-02T01:25:53.319Z,98610.00
2022-09-02T01:26:03.350Z,98612.00
2022-09-02T01:26:13.321Z,98615.00
2022-09-02T01:26:24.120Z,98612.00
2022-09-02T01:26:35.280Z,98613.00
2022-09-02T01:26:45.261Z,98613.00
2022-09-02T01:26:53.304Z,98612.00
2022-09-02T01:27:03.309Z,98612.00
2022-09-02T01:27:13.330Z,98610.00
2022-09-02T01:27:23.316Z,98612.00
2022-09-02T01:27:33.321Z,98612.00
2022-09-02T01:27:43.330Z,98610.00
2022-09-02T01:27:55.260Z,98615.00
2022-09-02T01:28:04.326Z,98612.00
2022-09-02T01:28:13.370Z,98613.00
2022-09-02T01:28:25.250Z,98612.00
2022-09-02T01:28:35.230Z,98612.00
2022-09-02T01:28:43.318Z,98610.00
2022-09-02T01:28:55.263Z,98612.00
2022-09-02T01:29:04.121Z,98613.00
2022-09-02T01:29:13.313Z,98608.00
2022-09-02T01:29:23.290Z,98610.00
2022-09-02T01:29:35.260Z,98612.00
2022-09-02T01:29:44.248Z,98613.00
2022-09-02T01:29:55.240Z,98612.00
2022-09-02T01:30:03.294Z,98612.00
2022-09-02T01:30:15.254Z,98613.00
2022-09-02T01:30:25.062Z,98615.00
2022-09-02T01:30:35.244Z,98613.00
2022-09-02T01:30:43.288Z,98615.00
2022-09-02T01:30:53.572Z,98613.00
2022-09-02T01:31:05.257Z,98612.00
2022-09-02T01:31:13.404Z,98613.00
2022-09-02T01:31:25.298Z,98613.00
2022-09-02T01:31:33.992Z,98615.00
2022-09-02T01:31:43.346Z,98615.00
2022-09-02T01:31:55.282Z,98613.00
2022-09-02T01:32:05.214Z,98615.00
2022-09-02T01:32:15.220Z,98615.00
2022-09-02T01:32:25.212Z,98615.00
2022-09-02T01:32:35.223Z,98615.00
2022-09-02T01:32:45.212Z,98615.00
2022-09-02T01:32:55.213Z,98613.00
2022-09-02T01:33:05.224Z,98615.00
2022-09-02T01:33:13.680Z,98613.00
2022-09-02T01:33:26.168Z,98615.00
2022-09-02T01:33:35.204Z,98613.00
2022-09-02T01:33:45.407Z,98615.00
2022-09-02T01:33:53.622Z,98615.00
2022-09-02T01:34:05.209Z,98617.00
2022-09-02T01:34:15.212Z,98615.00
2022-09-02T01:34:23.263Z,98615.00
2022-09-02T01:34:35.231Z,98615.00
2022-09-02T01:34:43.252Z,98617.00
2022-09-02T01:34:53.649Z,98617.00
2022-09-02T01:35:03.243Z,98615.00
2022-09-02T01:35:14.042Z,98613.00
2022-09-02T01:35:25.203Z,98615.00
2022-09-02T01:35:35.204Z,98615.00
2022-09-02T01:35:45.201Z,98613.00
2022-09-02T01:35:55.213Z,98615.00
2022-09-02T01:36:05.193Z,98615.00
2022-09-02T01:36:13.240Z,98612.00
2022-09-02T01:36:23.263Z,98617.00
2022-09-02T01:36:33.253Z,98615.00
2022-09-02T01:36:45.192Z,98613.00
2022-09-02T01:36:53.233Z,98613.00
2022-09-02T01:37:05.194Z,98615.00
2022-09-02T01:37:15.182Z,98615.00
2022-09-02T01:37:25.184Z,98613.00
2022-09-02T01:37:35.183Z,98613.00
2022-09-02T01:37:53.592Z,98613.00
2022-09-02T01:37:55.446Z,98610.00
2022-09-02T01:38:03.254Z,98612.00
2022-09-02T01:38:13.243Z,98613.00
2022-09-02T01:38:23.243Z,98613.00
2022-09-02T01:38:33.234Z,98612.00
2022-09-02T01:38:43.246Z,98613.00
2022-09-02T01:38:55.183Z,98613.00
2022-09-02T01:39:05.174Z,98612.00
2022-09-02T01:39:15.173Z,98613.00
2022-09-02T01:39:23.213Z,98613.00
2022-09-02T01:39:35.184Z,98612.00
2022-09-02T01:39:45.173Z,98612.00
2022-09-02T01:39:55.154Z,98612.00
2022-09-02T01:40:05.192Z,98612.00
2022-09-02T01:40:14.710Z,98612.00
2022-09-02T01:40:25.344Z,98612.00
2022-09-02T01:40:35.210Z,98612.00
2022-09-02T01:40:44.687Z,98612.00
2022-09-02T01:40:55.184Z,98613.00
2022-09-02T01:41:03.203Z,98612.00
2022-09-02T01:41:13.352Z,98612.00
2022-09-02T01:41:25.163Z,98612.00
2022-09-02T01:41:33.202Z,98612.00
2022-09-02T01:41:45.164Z,98612.00
2022-09-02T01:41:53.205Z,98612.00
2022-09-02T01:42:05.154Z,98612.00
2022-09-02T01:42:13.195Z,98613.00
2022-09-02T01:42:24.114Z,98612.00
2022-09-02T01:42:35.159Z,98613.00
2022-09-02T01:42:43.186Z,98612.00
2022-09-02T01:42:53.200Z,98612.00
2022-09-02T01:43:03.205Z,98610.00
2022-09-02T01:43:14.122Z,98612.00
2022-09-02T01:43:23.384Z,98612.00
2022-09-02T01:43:33.211Z,98612.00
2022-09-02T01:43:45.173Z,98612.00
2022-09-02T01:43:55.146Z,98610.00
2022-09-02T01:44:03.954Z,98612.00
2022-09-02T01:44:15.135Z,98612.00
2022-09-02T01:44:25.135Z,98612.00
2022-09-02T01:44:34.165Z,98610.00
2022-09-02T01:44:45.135Z,98612.00
2022-09-02T01:44:55.134Z,98610.00
2022-09-02T01:45:03.174Z,98610.00
2022-09-02T01:45:13.191Z,98610.00
2022-09-02T01:45:25.157Z,98610.00
2022-09-02T01:45:35.121Z,98612.00
2022-09-02T01:45:44.655Z,98610.00
2022-09-02T01:45:55.145Z,98610.00
2022-09-02T01:46:03.174Z,98608.00
2022-09-02T01:46:14.069Z,98608.00
2022-09-02T01:46:25.156Z,98608.00
2022-09-02T01:46:33.224Z,98608.00
2022-09-02T01:46:44.035Z,98608.00
2022-09-02T01:46:55.167Z,98610.00
2022-09-02T01:47:03.228Z,98610.00
2022-09-02T01:47:14.168Z,98612.00
2022-09-02T01:47:23.679Z,98606.00
2022-09-02T01:47:33.685Z,98612.00
2022-09-02T01:47:44.116Z,98610.00
2022-09-02T01:47:53.703Z,98610.00
2022-09-02T01:48:03.705Z,98612.00
2022-09-02T01:48:13.597Z,98612.00
2022-09-02T01:48:23.145Z,98610.00
2022-09-02T01:48:33.736Z,98610.00
2022-09-02T01:48:45.094Z,98612.00
2022-09-02T01:48:53.772Z,98610.00
2022-09-02T01:49:03.756Z,98612.00
2022-09-02T01:49:13.766Z,98610.00
2022-09-02T01:49:23.778Z,98612.00
2022-09-02T01:49:35.964Z,98612.00
2022-09-02T01:49:43.788Z,98610.00
2022-09-02T01:49:53.797Z,98610.00
2022-09-02T01:50:03.796Z,98610.00
2022-09-02T01:50:13.810Z,98610.00
2022-09-02T01:50:23.823Z,98612.00
2022-09-02T01:50:33.140Z,98610.00
2022-09-02T01:50:47.023Z,98610.00
2022-09-02T01:50:53.306Z,98608.00
2022-09-02T01:51:05.125Z,98612.00
2022-09-02T01:51:13.303Z,98610.00
2022-09-02T01:51:25.097Z,98612.00
2022-09-02T01:51:35.094Z,98610.00
2022-09-02T01:51:45.085Z,98610.00
2022-09-02T01:51:53.125Z,98610.00
2022-09-02T01:52:03.898Z,98612.00
2022-09-02T01:52:13.944Z,98612.00
2022-09-02T01:52:25.087Z,98613.00
2022-09-02T01:52:35.067Z,98610.00
2022-09-02T01:52:43.127Z,98610.00
2022-09-02T01:52:54.146Z,98612.00
2022-09-02T01:53:03.164Z,98612.00
2022-09-02T01:53:15.087Z,98613.00
2022-09-02T01:53:25.071Z,98612.00
2022-09-02T01:53:35.098Z,98612.00
2022-09-02T01:53:45.067Z,98612.00
2022-09-02T01:53:55.077Z,98610.00
2022-09-02T01:54:03.127Z,98610.00
2022-09-02T01:54:15.067Z,98612.00
2022-09-02T01:54:23.118Z,98610.00
2022-09-02T01:54:33.135Z,98612.00
2022-09-02T01:54:43.126Z,98610.00
2022-09-02T01:54:55.073Z,98610.00
2022-09-02T01:55:03.108Z,98610.00
2022-09-02T01:55:13.110Z,98610.00
2022-09-02T01:55:25.095Z,98610.00
2022-09-02T01:55:33.107Z,98610.00
2022-09-02T01:55:45.058Z,98610.00
2022-09-02T01:55:55.048Z,98610.00
2022-09-02T01:56:05.050Z,98610.00
2022-09-02T01:56:14.548Z,98608.00
2022-09-02T01:56:25.048Z,98610.00
2022-09-02T01:56:35.050Z,98610.00
2022-09-02T01:56:43.087Z,98610.00
2022-09-02T01:56:55.061Z,98610.00
2022-09-02T01:57:05.058Z,98610.00
2022-09-02T01:57:15.038Z,98612.00
2022-09-02T01:57:25.039Z,98608.00
2022-09-02T01:57:35.038Z,98608.00